Погода Сиудад-Альтамиранона неделю

Герреро, Мексика

27 февраля-04 марта
  • 27февраля
    Сегодня
    +22°
    +42°
    Ясно и безоблачно
    ВремяПогодаТемператураВлажностьДавлениеВетер, м/сВероятность осадков
    00:00Ясно и безоблачно+29°C53 %738 мм1.6 м/с1 %
    03:00Ясно и безоблачно+26°C63 %738 мм0.6 м/с1 %
    06:00Ясно и безоблачно+24°C67 %738 мм0.3 м/с1 %
    09:00Ясно и безоблачно+24°C50 %740 мм0.2 м/с1 %
    12:00Ясно и безоблачно+34°C31 %739 мм0.6 м/с1 %
    15:00Ясно и безоблачно+40°C22 %735 мм1.7 м/с1 %
    18:00Ясно и безоблачно+40°C23 %734 мм2.2 м/с1 %
    21:00Ясно и безоблачно+33°C44 %736 мм2.8 м/с1 %
  • 28февраля
    Среда
    +22°
    +42°
    Ясно и безоблачно
    ВремяПогодаТемператураВлажностьДавлениеВетер, м/сВероятность осадков
    00:00Ясно и безоблачно+28°C58 %738 мм1.2 м/с1 %
    03:00Ясно и безоблачно+26°C68 %737 мм0.8 м/с1 %
    06:00Ясно и безоблачно+24°C71 %737 мм0.4 м/с1 %
    09:00Ясно и безоблачно+25°C54 %739 мм0.3 м/с1 %
    12:00Ясно и безоблачно+34°C31 %739 мм0.7 м/с1 %
    15:00Ясно и безоблачно+41°C23 %735 мм1.2 м/с1 %
    18:00Ясно и безоблачно+40°C26 %734 мм1.4 м/с1 %
    21:00Ясно и безоблачно+33°C41 %736 мм2.9 м/с1 %
  • 29февраля
    Четверг
    +25°
    +41°
    Небольшая облачность
    ВремяПогодаТемператураВлажностьДавлениеВетер, м/сВероятность осадков
    00:00Ясно и безоблачно+28°C58 %738 мм1.3 м/с1 %
    03:00Ясно и безоблачно+26°C59 %738 мм0.5 м/с1 %
    06:00Ясно и безоблачно+24°C72 %739 мм0.5 м/с1 %
    09:00Ясно и безоблачно+25°C52 %741 мм0.3 м/с1 %
    12:00Ясно и безоблачно+35°C27 %740 мм1.6 м/с1 %
    15:00Небольшая облачность+40°C21 %737 мм1.9 м/с1 %
    18:00Ясно и безоблачно+40°C20 %736 мм2.7 м/с1 %
    21:00Облачно с прояснениями+34°C34 %738 мм2.8 м/с1 %
  • 01марта
    Пятница
    +22°
    +42°
    Небольшая облачность
    ВремяПогодаТемператураВлажностьДавлениеВетер, м/сВероятность осадков
    00:00Облачно с прояснениями+31°C47 %739 мм1.4 м/с1 %
    03:00Практически безоблачно+27°C55 %738 мм1.1 м/с1 %
    06:00Небольшая облачность+25°C60 %739 мм0.5 м/с1 %
    09:00Ясно и безоблачно+25°C46 %741 мм0.0 м/с1 %
    12:00Небольшая облачность+35°C26 %740 мм0.3 м/с1 %
    15:00Небольшая облачность+41°C18 %737 мм1.8 м/с1 %
    18:00Облачно с прояснениями+39°C18 %736 мм3.8 м/с1 %
    21:00Облачно с прояснениями+32°C34 %738 мм2.0 м/с1 %
Мы используем cookies
Соглашаюсь